Terminal Aerodrome Forecast
Issued by NWS

Home | Current Version | Previous Version | Graphics & Text | Print | Product List | Glossary On
Versions: 1 2 3 4 5 6 7 8 9 10 11 12 13 14 15
000
FTUS43 KICT 200500
TAFHUT
TAF
KHUT 200520Z 2006/2106 17013KT P6SM BKN200
     FM201500 19015G23KT P6SM SCT060 BKN150
     FM202100 19015G23KT P6SM BKN050
     FM202300 17010KT P6SM VCSH BKN050=

USA.gov is the U.S. government's official web portal to all federal, state and local government web resources and services.